• Join FlightAware (Why Join?)
  • Login
  • US Flag 
07:54PM EDT


 

Airport Tracker/Info


-or-


 

Live Flight TrackerFlight Track Log ✈ SWA1542 ✈ 04-Jul-2013 ✈ KBWI - KLAS

Flight Track Log - Related Links

Times and Time Zones

All times are in EDT time to prevent confusion due to time zone crossing. See the SWA1542 flight status page for this flight to view local times or setup timezone preferences in your user account.

Time Position Orientation Groundspeed Altitude Reporting Facility
EDT Latitude Longitude Course Direction KTS MPH feet Rate Location/Type
06:55PM 39.1750 -76.7780 285° West 258 297 5,500  Level FlightAware
06:56PM 39.1860 -76.8230 288° West 269 310 6,800 2,520 Climbing FlightAware
06:56PM 39.1930 -76.8490 289° West 276 318 7,600 2,520 Climbing FlightAware
06:56PM 39.2040 -76.8990 286° West 281 323 9,000 2,520 Climbing FlightAware
06:57PM 39.2140 -76.9600 282° West 284 327 10,600 1,740 Climbing FlightAware
06:58PM 39.2140 -77.0300 270° West 330 380 11,300 1,140 Climbing FlightAware
06:58PM 39.2140 -77.0880 270° West 357 411 11,900 1,740 Climbing FlightAware
06:59PM 39.2050 -77.1470 259° West 358 412 13,000 2,100 Climbing FlightAware
06:59PM 39.1920 -77.1710 235° Southwest 358 412 13,400 2,280 Climbing FlightAware
07:00PM 39.1270 -77.2290 215° Southwest 368 423 15,300 2,340 Climbing FlightAware
07:00PM 39.0860 -77.2860 227° Southwest 377 434 16,600 2,040 Climbing FlightAware
07:01PM 39.0600 -77.3880 252° West 392 451 18,100 1,920 Climbing FlightAware
07:02PM 39.0280 -77.5200 253° West 404 465 20,000 1,980 Climbing FlightAware
07:03PM 39.0050 -77.6090 252° West 403 464 21,400 1,740 Climbing FlightAware
07:03PM 38.9800 -77.7080 252° West 411 473 22,500 1,380 Climbing FlightAware
07:04PM 38.9570 -77.8010 252° West 421 484 23,400 1,260 Climbing FlightAware
07:05PM 38.9340 -77.8930 252° West 428 493 24,200 1,500 Climbing FlightAware
07:05PM 38.9020 -78.0170 252° West 434 499 25,500 1,680 Climbing FlightAware
07:06PM 38.8780 -78.1150 253° West 434 499 26,500 1,320 Climbing FlightAware
07:07PM 38.8570 -78.2160 255° West 442 509 27,300 1,140 Climbing FlightAware
07:08PM 38.8530 -78.3330 268° West 456 525 28,100 1,020 Climbing FlightAware
07:08PM 38.8520 -78.4390 269° West 460 529 28,800 1,020 Climbing FlightAware
07:09PM 38.8500 -78.5570 269° West 463 533 29,600 1,200 Climbing FlightAware
07:10PM 38.8490 -78.6660 269° West 463 533 30,500 1,260 Climbing FlightAware
07:10PM 38.8470 -78.7700 269° West 461 531 31,200 1,200 Climbing FlightAware
07:11PM 38.8460 -78.8850 269° West 458 527 32,100 1,260 Climbing FlightAware
07:12PM 38.8440 -78.9890 269° West 452 520 33,000 1,260 Climbing FlightAware
07:12PM 38.8420 -79.0860 269° West 448 516 33,700 1,140 Climbing FlightAware
07:13PM 38.8400 -79.2450 269° West 439 505 34,900 1,200 Climbing FlightAware
07:14PM 38.8380 -79.3350 268° West 431 496 35,700 780 Climbing FlightAware
07:15PM 38.8350 -79.4500 268° West 425 489 36,000 180 Climbing FlightAware
07:15PM 38.8290 -79.5540 266° West 423 487 36,000  Level FlightAware
07:16PM 38.8110 -79.6530 257° West 425 489 36,000  Level FlightAware
07:17PM 38.7920 -79.7620 257° West 426 490 36,000  Level FlightAware
07:17PM 38.7730 -79.8680 257° West 424 488 36,000  Level FlightAware
07:18PM 38.7550 -79.9720 258° West 422 486 36,000  Level FlightAware
07:19PM 38.7390 -80.0710 258° West 424 488 36,000  Level FlightAware
07:19PM 38.7220 -80.1800 259° West 423 487 36,000  Level FlightAware
07:20PM 38.7070 -80.2720 258° West 422 486 36,000  Level FlightAware
07:21PM 38.6900 -80.3720 258° West 417 480 36,000  Level FlightAware
07:22PM 38.6590 -80.4730 249° West 415 478 36,000  Level FlightAware
07:22PM 38.6270 -80.5750 248° West 417 480 36,000  Level FlightAware
07:23PM 38.6040 -80.6520 249° West 420 483 36,000  Level FlightAware
07:24PM 38.5710 -80.7590 249° West 420 483 36,000  Level FlightAware
07:24PM 38.5440 -80.8460 248° West 419 482 36,000  Level FlightAware
07:25PM 38.5140 -80.9460 249° West 418 481 36,000  Level FlightAware
07:26PM 38.4880 -81.0320 249° West 418 481 36,000  Level FlightAware
07:26PM 38.4620 -81.1210 250° West 416 479 36,000  Level FlightAware
07:27PM 38.4350 -81.2140 250° West 414 476 36,000  Level FlightAware
07:28PM 38.4060 -81.3140 250° West 412 474 36,000  Level FlightAware
07:28PM 38.3800 -81.4050 250° West 412 474 36,000  Level FlightAware
07:29PM 38.3520 -81.5040 250° West 411 473 36,000  Level FlightAware
07:30PM 38.3410 -81.5920 261° West 418 481 36,000  Level FlightAware
07:30PM 38.3350 -81.7080 266° West 417 480 36,000  Level FlightAware
07:31PM 38.3310 -81.7890 266° West 417 480 36,000  Level FlightAware
07:32PM 38.3250 -81.8980 266° West 417 480 36,000  Level FlightAware
07:32PM 38.3210 -81.9940 267° West 421 484 36,000  Level FlightAware
07:33PM 38.3210 -82.0830 270° West 422 486 36,000  Level FlightAware
07:34PM 38.3240 -82.1840 272° West 428 493 36,000  Level FlightAware
07:34PM 38.3360 -82.2950 278° West 428 493 36,000  Level FlightAware
07:35PM 38.3460 -82.3970 277° West 431 496 36,000  Level FlightAware
07:36PM 38.3560 -82.5060 277° West 434 499 36,000  Level FlightAware
07:36PM 38.3670 -82.6120 278° West 435 501 36,000  Level FlightAware
07:37PM 38.3780 -82.7240 277° West 436 502 36,000  Level FlightAware
07:38PM 38.3860 -82.8130 277° West 437 503 36,000  Level FlightAware
07:38PM 38.3960 -82.9150 277° West 438 504 36,000  Level FlightAware
07:39PM 38.4070 -83.0190 278° West 443 510 36,000  Level FlightAware
07:40PM 38.4430 -83.1110 297° West 460 529 36,000  Level FlightAware
07:40PM 38.4870 -83.2030 301° West 459 528 36,000  Level FlightAware
07:41PM 38.5310 -83.2940 302° West 458 527 36,000  Level FlightAware
07:42PM 38.5810 -83.4000 301° West 458 527 36,000  Level FlightAware
07:43PM 38.6450 -83.5280 303° West 460 529 36,000  Level FlightAware
07:43PM 38.6880 -83.6240 300° West 448 516 36,000  Level FlightAware
07:44PM 38.7010 -83.7260 279° West 432 497 36,000  Level FlightAware
07:45PM 38.7060 -83.8290 274° West 434 499 36,000  Level FlightAware
07:45PM 38.7110 -83.9260 274° West 436 502 36,000  Level FlightAware
07:46PM 38.7170 -84.0310 274° West 437 503 36,000  Level FlightAware
07:47PM 38.7210 -84.1330 273° West 437 503 36,000  Level FlightAware
07:48PM 38.7250 -84.2390 273° West 437 503 36,000  Level FlightAware
07:48PM 38.7290 -84.3180 274° West 437 503 36,000  Level FlightAware
07:49PM 38.7380 -84.4680 274° West 441 507 36,000  Level FlightAware
07:50PM 38.7460 -84.6370 274° West 443 510 36,000  Level FlightAware
07:51PM 38.7500 -84.7410 273° West 443 510 36,000  Level FlightAware
07:51PM 38.7550 -84.8580 273° West 444 511 36,000  Level FlightAware
07:52PM 38.7590 -84.9520 273° West 442 509 36,000  Level FlightAware
07:53PM 38.7630 -85.0540 273° West 440 506 36,000  Level FlightAware
07:53PM 38.7680 -85.1700 273° West 438 504 36,000  Level FlightAware
07:54PM 38.7710 -85.2540 273° West 437 503 36,000  Level FlightAware
07:55PM 38.7760 -85.3610 273° West 436 502 36,000  Level FlightAware
07:55PM 38.7800 -85.4730 273° West 435 501 36,000  Level FlightAware
07:56PM 38.7840 -85.5840 273° West 433 498 36,000  Level FlightAware
07:57PM 38.7880 -85.6880 273° West 432 497 36,000  Level FlightAware
07:57PM 38.7910 -85.7910 272° West 431 496 36,000  Level FlightAware
07:58PM 38.7950 -85.9040 273° West 430 495 36,000  Level FlightAware
07:59PM 38.7980 -85.9990 272° West 430 495 36,000  Level FlightAware
08:00PM 38.8030 -86.1330 273° West 431 496 36,000  Level FlightAware
08:00PM 38.8060 -86.2360 272° West 433 498 36,000  Level FlightAware
08:01PM 38.8090 -86.3260 272° West 433 498 36,000  Level FlightAware
08:02PM 38.8120 -86.4180 272° West 433 498 36,000  Level FlightAware
08:02PM 38.8150 -86.5390 272° West 434 499 36,000  Level FlightAware
08:03PM 38.8180 -86.6410 272° West 434 499 36,000  Level FlightAware
08:04PM 38.8210 -86.7400 272° West 434 499 36,000  Level FlightAware
08:04PM 38.8240 -86.8650 272° West 435 501 36,000  Level FlightAware
08:05PM 38.8270 -86.9760 272° West 434 499 36,000  Level FlightAware
08:06PM 38.8290 -87.0790 271° West 433 498 36,000  Level FlightAware
08:06PM 38.8310 -87.1720 272° West 433 498 36,000  Level FlightAware
08:07PM 38.8340 -87.2880 272° West 433 498 36,000  Level FlightAware
08:08PM 38.8360 -87.3920 271° West 433 498 36,000  Level FlightAware
08:09PM 38.8380 -87.4960 271° West 434 499 36,000  Level FlightAware
08:09PM 38.8410 -87.6090 272° West 438 504 36,000  Level FlightAware
08:10PM 38.8420 -87.7130 271° West 441 507 36,000  Level FlightAware
08:11PM 38.8440 -87.8060 272° West 443 510 36,000  Level FlightAware
08:11PM 38.8460 -87.9110 271° West 445 512 36,000  Level FlightAware
08:12PM 38.8480 -88.0270 271° West 447 514 36,000  Level FlightAware
08:13PM 38.8490 -88.1340 271° West 448 516 36,000  Level FlightAware
08:13PM 38.8510 -88.2470 271° West 449 517 36,000  Level FlightAware
08:14PM 38.8530 -88.3650 271° West 446 513 36,000  Level FlightAware
08:15PM 38.8510 -88.4680 269° West 441 507 36,000  Level FlightAware
08:15PM 38.8480 -88.5810 268° West 433 498 36,000  Level FlightAware
08:16PM 38.8460 -88.6770 268° West 434 499 36,000  Level FlightAware
08:17PM 38.8440 -88.7760 269° West 435 501 36,000  Level FlightAware
08:17PM 38.8420 -88.8820 269° West 437 503 36,000  Level FlightAware
08:18PM 38.8390 -88.9890 268° West 439 505 36,000  Level FlightAware
08:19PM 38.8370 -89.0840 268° West 439 505 36,000  Level FlightAware
08:19PM 38.8350 -89.1960 269° West 439 505 36,000  Level FlightAware
08:20PM 38.8320 -89.2950 268° West 438 504 36,000  Level FlightAware
08:21PM 38.8290 -89.4040 268° West 435 501 36,000  Level FlightAware
08:21PM 38.8260 -89.5120 268° West 435 501 36,000  Level FlightAware
08:22PM 38.8230 -89.6250 268° West 434 499 36,000  Level FlightAware
08:23PM 38.8200 -89.7230 268° West 434 499 36,000  Level FlightAware
08:23PM 38.8170 -89.8220 268° West 433 498 36,000  Level FlightAware
08:24PM 38.8140 -89.9270 268° West 432 497 36,000  Level FlightAware
08:25PM 38.8110 -90.0380 268° West 428 493 36,000  Level FlightAware
08:25PM 38.8080 -90.1300 268° West 424 488 36,000  Level FlightAware
08:26PM 38.8050 -90.2290 268° West 424 488 36,000  Level FlightAware
08:27PM 38.8010 -90.3390 267° West 427 491 36,000  Level FlightAware
08:28PM 38.7970 -90.4430 267° West 427 491 36,000  Level FlightAware
08:28PM 38.7940 -90.5410 268° West 428 493 36,000  Level FlightAware
08:29PM 38.7900 -90.6550 267° West 429 494 36,000  Level FlightAware
08:30PM 38.7850 -90.7620 267° West 431 496 36,000  Level FlightAware
08:30PM 38.7810 -90.8670 267° West 439 505 36,000  Level FlightAware
08:31PM 38.7780 -90.9600 268° West 441 507 36,000  Level FlightAware
08:32PM 38.7730 -91.0730 267° West 441 507 36,000  Level FlightAware
08:32PM 38.7680 -91.1970 267° West 443 510 36,000  Level FlightAware
08:33PM 38.7620 -91.3270 267° West 445 512 36,000  Level FlightAware
08:34PM 38.7570 -91.4500 267° West 439 505 36,000  Level FlightAware
08:35PM 38.7520 -91.5630 267° West 438 504 36,000  Level FlightAware
08:36PM 38.7470 -91.6750 267° West 438 504 36,000  Level FlightAware
08:36PM 38.7420 -91.7590 266° West 438 504 36,000  Level FlightAware
08:37PM 38.7380 -91.8400 266° West 438 504 36,000  Level FlightAware
08:37PM 38.7340 -91.9200 266° West 438 504 36,000  Level FlightAware
08:38PM 38.7280 -92.0250 266° West 438 504 36,000  Level FlightAware
08:39PM 38.7210 -92.2180 267° West 436 502 36,000  Level FlightAware
08:40PM 38.7160 -92.3170 266° West 441 507 36,000  Level FlightAware
08:41PM 38.7090 -92.4490 266° West 451 519 36,000  Level FlightAware
08:41PM 38.7030 -92.5640 266° West 453 521 36,000  Level FlightAware
08:42PM 38.6940 -92.7150 266° West 454 522 36,000  Level FlightAware
08:43PM 38.6870 -92.8490 266° West 454 522 36,000  Level FlightAware
08:44PM 38.6820 -92.9390 266° West 456 525 36,000  Level FlightAware
08:44PM 38.6750 -93.0520 265° West 459 528 36,000  Level FlightAware
08:45PM 38.6690 -93.1590 266° West 461 531 36,000  Level FlightAware
08:46PM 38.6620 -93.2770 266° West 462 532 36,000  Level FlightAware
08:46PM 38.6570 -93.3740 266° West 458 527 36,000  Level FlightAware
08:47PM 38.6500 -93.4830 265° West 456 525 36,000  Level FlightAware
08:48PM 38.6420 -93.6080 265° West 458 527 36,000  Level FlightAware
08:48PM 38.6350 -93.7130 265° West 459 528 36,000  Level FlightAware
08:49PM 38.6280 -93.8350 266° West 459 528 36,000  Level FlightAware
08:50PM 38.6210 -93.9400 265° West 459 528 36,000  Level FlightAware
08:50PM 38.6130 -94.0610 265° West 459 528 36,000  Level FlightAware
08:51PM 38.6060 -94.1590 265° West 459 528 36,000  Level FlightAware
08:52PM 38.5990 -94.2640 265° West 459 528 36,000  Level FlightAware
08:52PM 38.5920 -94.3730 265° West 458 527 36,000  Level FlightAware
08:53PM 38.5840 -94.4790 265° West 457 526 36,000  Level FlightAware
08:54PM 38.5770 -94.5770 265° West 458 527 36,000  Level FlightAware
08:54PM 38.5690 -94.6910 265° West 459 528 36,000  Level FlightAware
08:55PM 38.5610 -94.8050 265° West 460 529 36,000  Level FlightAware
08:56PM 38.5520 -94.9230 264° West 460 529 36,000  Level FlightAware
08:57PM 38.5440 -95.0370 265° West 460 529 36,000  Level FlightAware
08:57PM 38.5350 -95.1480 264° West 459 528 36,000  Level FlightAware
08:58PM 38.5270 -95.2530 264° West 460 529 36,000  Level FlightAware
08:58PM 38.5200 -95.3450 264° West 462 532 36,000  Level FlightAware
08:59PM 38.5100 -95.4740 264° West 469 540 36,000  Level FlightAware
09:00PM 38.5010 -95.5840 264° West 473 544 36,000  Level FlightAware
09:00PM 38.4930 -95.6830 264° West 474 545 36,000  Level FlightAware
09:01PM 38.4840 -95.7980 264° West 473 544 36,000  Level FlightAware
09:02PM 38.4750 -95.9130 264° West 473 544 36,000  Level FlightAware
09:03PM 38.4650 -96.0330 264° West 471 542 36,000  Level FlightAware
09:03PM 38.4550 -96.1500 264° West 469 540 36,000  Level FlightAware
09:04PM 38.4460 -96.2580 264° West 467 537 36,000  Level FlightAware
09:05PM 38.4350 -96.3800 263° West 466 536 36,000  Level FlightAware
09:05PM 38.4270 -96.4740 264° West 467 537 36,000  Level FlightAware
09:06PM 38.4170 -96.5840 263° West 469 540 36,000  Level FlightAware
09:07PM 38.4060 -96.7120 264° West 469 540 36,000  Level FlightAware
09:07PM 38.3980 -96.7980 263° West 469 540 36,000  Level FlightAware
09:08PM 38.3870 -96.9170 263° West 469 540 36,000  Level FlightAware
09:09PM 38.3770 -97.0280 263° West 469 540 36,000  Level FlightAware
09:09PM 38.3660 -97.1510 264° West 469 540 36,000  Level FlightAware
09:10PM 38.3560 -97.2580 263° West 469 540 36,000  Level FlightAware
09:11PM 38.3460 -97.3580 263° West 469 540 36,000  Level FlightAware
09:11PM 38.3340 -97.4880 263° West 469 540 36,000  Level FlightAware
09:12PM 38.3220 -97.6090 263° West 470 541 36,000  Level FlightAware
09:13PM 38.3110 -97.7200 263° West 472 543 36,000  Level FlightAware
09:14PM 38.2990 -97.8430 263° West 473 544 36,000  Level FlightAware
09:14PM 38.2880 -97.9570 263° West 475 547 36,000  Level FlightAware
09:15PM 38.2760 -98.0690 262° West 476 548 36,000  Level FlightAware
09:16PM 38.2650 -98.1830 263° West 476 548 36,000  Level FlightAware
09:16PM 38.2520 -98.3060 262° West 476 548 36,000  Level FlightAware
09:17PM 38.2410 -98.4180 263° West 476 548 36,000  Level FlightAware
09:18PM 38.2280 -98.5380 262° West 474 545 36,000  Level FlightAware
09:18PM 38.2160 -98.6500 262° West 473 544 36,000  Level FlightAware
09:19PM 38.2060 -98.7490 263° West 472 543 36,000  Level FlightAware
09:20PM 38.1930 -98.8660 262° West 472 543 36,000  Level FlightAware
09:20PM 38.1810 -98.9750 262° West 472 543 36,000  Level FlightAware
09:21PM 38.1700 -99.0710 262° West 471 542 36,000  Level FlightAware
09:22PM 38.1580 -99.1830 262° West 471 542 36,000  Level FlightAware
09:22PM 38.1450 -99.2980 262° West 471 542 36,000  Level FlightAware
09:23PM 38.1300 -99.4280 262° West 471 542 36,000  Level FlightAware
09:24PM 38.1190 -99.5120 261° West 471 542 36,000  Level FlightAware
09:25PM 38.1060 -99.6230 262° West 471 542 36,000  Level FlightAware
09:25PM 38.0950 -99.7070 261° West 471 542 36,000  Level FlightAware
09:26PM 38.0810 -99.8180 261° West 471 542 36,000  Level FlightAware
09:27PM 38.0710 -99.9020 261° West 471 542 36,000  Level FlightAware
09:27PM 38.0570 -100.0160 261° West 471 542 36,000  Level FlightAware
09:28PM 38.0460 -100.1000 261° West 471 542 36,000  Level FlightAware
09:29PM 38.0360 -100.1830 261° West 471 542 36,000  Level FlightAware
09:29PM 38.0220 -100.2950 261° West 471 542 36,000  Level FlightAware
09:30PM 38.0110 -100.3780 260° West 471 542 36,000  Level FlightAware
09:31PM 38.0010 -100.4620 261° West 471 542 36,000  Level FlightAware
09:32PM 37.9830 -100.6010 261° West 471 542 36,000  Level FlightAware
09:32PM 37.9740 -100.6800 262° West 471 542 36,000 1,200 Level FlightAware
09:33PM 37.9311 -101.0764 262° West 472 543 38,000 960 Climbing Kansas City Center
09:34PM 37.9111 -101.2325 261° West 473 544 38,000  Level Kansas City Center
09:35PM 37.8869 -101.4142 260° West 472 543 38,000  Level Kansas City Center
09:36PM 37.8664 -101.5700 261° West 471 542 38,000  Level Kansas City Center
09:37PM 37.8469 -101.7253 261° West 470 541 38,000  Level Kansas City Center
09:38PM 37.8219 -101.9042 260° West 466 536 38,000  Level Kansas City Center
09:39PM 37.8011 -102.0583 260° West 465 535 38,000  Level Kansas City Center
09:40PM 37.7797 -102.2106 260° West 462 532 38,000  Level Kansas City Center
09:41PM 37.7553 -102.3889 260° West 461 531 38,000  Level Kansas City Center
09:42PM 37.7353 -102.5389 260° West 457 526 38,000  Level Kansas City Center
09:43PM 37.7125 -102.6908 259° West 458 527 38,000  Level Kansas City Center
09:44PM 37.6872 -102.8683 260° West 461 531 38,000  Level Kansas City Center
09:45PM 37.6644 -103.0200 259° West 460 529 38,000  Level Kansas City Center
09:47PM 37.6389 -103.2047 260° West 462 532 38,000  Level Denver Center
09:48PM 37.6169 -103.3572 260° West 462 532 38,000  Level Denver Center
09:49PM 37.5903 -103.5339 259° West 459 528 38,000  Level Denver Center
09:50PM 37.5675 -103.6850 259° West 459 528 38,000  Level Denver Center
09:51PM 37.5444 -103.8372 259° West 461 531 38,000  Level Denver Center
09:52PM 37.5200 -103.9914 259° West 468 539 38,000  Level Denver Center
09:53PM 37.4894 -104.1861 259° West 474 545 38,000  Level Denver Center
09:54PM 37.4664 -104.3386 259° West 467 537 38,000  Level Denver Center
09:55PM 37.4428 -104.4922 259° West 469 540 38,000  Level Denver Center
09:56PM 37.4139 -104.6706 259° West 466 536 38,000  Level Denver Center
09:57PM 37.3894 -104.8231 259° West 465 535 38,000  Level Denver Center
09:58PM 37.3650 -104.9739 259° West 463 533 38,000  Level Denver Center
09:59PM 37.3361 -105.1497 258° West 460 529 38,000  Level Denver Center
10:00PM 37.3092 -105.3125 258° West 463 533 38,000  Level Denver Center
10:01PM 37.2839 -105.4639 258° West 464 534 38,000  Level Denver Center
10:02PM 37.2558 -105.6289 258° West 462 532 38,000  Level Denver Center
10:08PM 37.0900 -106.5840 258° West 450 518 38,000  Level FlightAware
10:09PM 37.0750 -106.6960 261° West 446 513 38,000  Level FlightAware
10:09PM 37.0710 -106.8110 268° West 445 512 38,000  Level FlightAware
10:10PM 37.0700 -106.9150 269° West 446 513 38,000  Level FlightAware
10:11PM 37.0700 -107.0220 270° West 446 513 38,000  Level FlightAware
10:11PM 37.0700 -107.1150 270° West 448 516 38,000  Level FlightAware
10:12PM 37.0700 -107.2310 270° West 447 514 38,000  Level FlightAware
10:13PM 37.0710 -107.3330 271° West 445 512 38,000  Level FlightAware
10:13PM 37.0720 -107.4190 271° West 444 511 38,000  Level FlightAware
10:14PM 37.0730 -107.5230 271° West 444 511 38,000  Level FlightAware
10:15PM 37.0730 -107.6460 270° West 446 513 38,000  Level FlightAware
10:15PM 37.0640 -107.7390 263° West 451 519 38,000  Level FlightAware
10:16PM 37.0460 -107.8540 259° West 456 525 38,000  Level FlightAware
10:17PM 37.0190 -107.9700 254° West 458 527 38,000  Level FlightAware
10:18PM 36.9970 -108.0660 254° West 457 526 38,000  Level FlightAware
10:18PM 36.9780 -108.1520 255° West 458 527 38,000  Level FlightAware
10:19PM 36.9530 -108.2620 254° West 459 528 38,000  Level FlightAware
10:20PM 36.9270 -108.3790 254° West 458 527 38,000  Level FlightAware
10:20PM 36.9040 -108.4820 254° West 457 526 38,000  Level FlightAware
10:21PM 36.8810 -108.5810 254° West 456 525 38,000  Level FlightAware
10:22PM 36.8550 -108.6940 254° West 454 522 38,000  Level FlightAware
10:23PM 36.8240 -108.8300 254° West 455 524 38,000  Level FlightAware
10:23PM 36.8050 -108.9110 254° West 455 524 38,000  Level FlightAware
10:24PM 36.7880 -108.9890 255° West 455 524 38,000  Level FlightAware
10:25PM 36.7640 -109.0920 254° West 455 524 38,000  Level FlightAware
10:25PM 36.7460 -109.1690 254° West 455 524 38,000  Level FlightAware
10:26PM 36.7230 -109.2680 254° West 455 524 38,000  Level FlightAware
10:27PM 36.7000 -109.3710 254° West 455 524 38,000  Level FlightAware
10:27PM 36.6820 -109.4480 254° West 455 524 38,000  Level FlightAware
10:28PM 36.6640 -109.5270 254° West 455 524 38,000  Level FlightAware
10:29PM 36.6410 -109.6260 254° West 455 524 38,000  Level FlightAware
10:29PM 36.6230 -109.7030 254° West 455 524 38,000  Level FlightAware
10:30PM 36.6050 -109.7800 254° West 455 524 38,000  Level FlightAware
10:31PM 36.5870 -109.8590 254° West 455 524 38,000 -720 Level FlightAware
10:32PM 36.5080 -110.1620 252° West 454 522 37,000 -1,080 Descending FlightAware
10:32PM 36.4920 -110.2270 253° West 457 526 36,600 -1,020 Descending FlightAware
10:33PM 36.4650 -110.3340 253° West 457 526 35,900 -1,020 Descending FlightAware
10:33PM 36.4410 -110.4330 253° West 459 528 35,300 -900 Descending FlightAware
10:34PM 36.4170 -110.5320 253° West 455 524 34,700 -1,020 Descending FlightAware
10:35PM 36.3970 -110.6350 256° West 450 518 34,000 -1,320 Descending FlightAware
10:35PM 36.3920 -110.7360 267° West 449 517 33,000 -1,620 Descending FlightAware
10:36PM 36.3880 -110.8390 267° West 450 518 31,900 -1,800 Descending FlightAware
10:37PM 36.3860 -110.9360 269° West 445 512 30,700 -1,440 Descending FlightAware
10:37PM 36.3820 -111.0480 267° West 444 511 30,000 -540 Descending FlightAware
10:38PM 36.3790 -111.1500 268° West 444 511 30,000  Level FlightAware
10:39PM 36.3750 -111.2570 267° West 445 512 30,000  Level FlightAware
10:39PM 36.3710 -111.3600 267° West 447 514 30,000  Level FlightAware
10:40PM 36.3680 -111.4720 268° West 444 511 30,000  Level FlightAware
10:41PM 36.3640 -111.5730 267° West 441 507 30,000  Level FlightAware
10:41PM 36.3610 -111.6670 268° West 441 507 30,000  Level FlightAware
10:42PM 36.3570 -111.7650 267° West 441 507 30,000 -540 Level FlightAware
10:43PM 36.3530 -111.8810 268° West 447 514 29,300 -960 Descending FlightAware
10:43PM 36.3510 -111.9750 269° West 442 509 28,700 -1,080 Descending FlightAware
10:44PM 36.3480 -112.0720 268° West 430 495 28,000 -540 Descending FlightAware
10:45PM 36.3440 -112.1750 267° West 428 493 28,000  Level FlightAware
10:46PM 36.3310 -112.2770 261° West 429 494 28,000  Level FlightAware
10:46PM 36.3190 -112.3760 261° West 428 493 28,000  Level FlightAware
10:47PM 36.3010 -112.4800 258° West 431 496 28,000  Level FlightAware
10:48PM 36.2710 -112.5730 248° West 436 502 28,000  Level FlightAware
10:48PM 36.2270 -112.6760 242° Southwest 447 514 28,000  Level FlightAware
10:49PM 36.1870 -112.7670 241° Southwest 461 531 28,000  Level FlightAware
10:50PM 36.1430 -112.8680 242° Southwest 457 526 28,000  Level FlightAware
10:50PM 36.1030 -112.9610 242° Southwest 449 517 28,000  Level FlightAware
10:51PM 36.0650 -113.0490 242° Southwest 448 516 28,000  Level FlightAware
10:52PM 36.0210 -113.1500 242° Southwest 447 514 28,000  Level FlightAware
10:53PM 35.9780 -113.2490 242° Southwest 448 516 28,000 -180 Level FlightAware
10:53PM 35.9440 -113.3270 242° Southwest 434 499 27,800 -1,140 Descending FlightAware
10:54PM 35.9000 -113.4260 241° Southwest 416 479 26,500 -1,920 Descending FlightAware
10:55PM 35.8640 -113.5090 242° Southwest 409 471 25,100 -2,100 Descending FlightAware
10:55PM 35.8250 -113.5980 242° Southwest 401 461 23,600 -1,980 Descending FlightAware
10:56PM 35.7920 -113.6730 242° Southwest 394 453 22,400 -1,920 Descending FlightAware
10:57PM 35.7520 -113.7630 241° Southwest 386 444 20,900 -2,040 Descending FlightAware
10:57PM 35.7170 -113.8430 242° Southwest 381 438 19,500 -1,980 Descending FlightAware
10:58PM 35.6860 -113.9220 244° Southwest 373 429 18,200 -1,860 Descending FlightAware
10:59PM 35.6910 -114.0130 274° West 359 413 16,900 -1,800 Descending FlightAware
10:59PM 35.7020 -114.0930 280° West 349 402 15,800 -1,740 Descending FlightAware
11:00PM 35.7130 -114.1730 280° West 341 392 14,600 -1,740 Descending FlightAware
11:01PM 35.7240 -114.2520 280° West 335 386 13,400 -1,500 Descending FlightAware
11:02PM 35.7350 -114.3320 280° West 317 365 12,500 -1,020 Descending FlightAware
11:02PM 35.7500 -114.3790 291° West 306 352 12,200 -900 Descending FlightAware
11:03PM 35.7830 -114.4340 306° West 289 333 11,500 -1,320 Descending FlightAware
11:03PM 35.8160 -114.4930 305° West 287 330 10,400 -1,500 Descending FlightAware
11:04PM 35.8360 -114.5280 305° West 287 330 9,800 -1,440 Descending FlightAware
11:04PM 35.8460 -114.5450 306° West 286 329 9,500 -1,440 Descending FlightAware
11:05PM 35.8690 -114.5850 305° West 286 329 8,800 -1,440 Descending FlightAware
11:05PM 35.8810 -114.6070 304° West 285 328 8,400 -1,500 Descending FlightAware
11:05PM 35.9020 -114.6440 305° West 283 326 7,700 -1,200 Descending FlightAware
11:06PM 35.9220 -114.6790 305° West 275 316 7,300 -540 Descending FlightAware
11:06PM 35.9360 -114.7040 305° West 260 299 7,300  Level FlightAware
11:07PM 35.9550 -114.7370 305° West 258 297 7,300 -180 Level FlightAware
11:07PM 35.9640 -114.7520 307° West 252 290 7,200 -900 Descending FlightAware
11:07PM 35.9820 -114.7850 304° West 245 282 6,700 -1,200 Descending FlightAware
11:08PM 36.0000 -114.8160 306° West 247 284 6,100 -1,200 Descending FlightAware
11:08PM 36.0120 -114.8370 305° West 248 285 5,800 -1,200 Descending FlightAware
11:09PM 36.0300 -114.8700 304° West 250 288 5,200 -660 Descending FlightAware
11:09PM 36.0480 -114.9010 306° West 242 278 5,200  Level FlightAware
11:09PM 36.0660 -114.9330 305° West 242 278 5,200  Level FlightAware
11:10PM 36.0750 -114.9590 293° West 220 253 5,200 -660 Level FlightAware
11:10PM 36.0730 -115.0020 267° West 205 236 4,600 -1,140 Descending FlightAware
11:11PM 36.0740 -115.0120 277° West 202 232 4,400 -1,680 Descending FlightAware
11:11PM 36.0750 -115.0260 275° West 202 232 3,900 -1,320 Descending FlightAware
11:11PM 36.0740 -115.0530 267° West 185 213 3,600 -840 Descending FlightAware
11:12PM 36.0740 -115.0820 270° West 157 181 3,200 -960 Descending FlightAware
11:12PM 36.0740 -115.1200 270° West 154 177 2,500 -1,020 Descending FlightAware
11:13PM 36.0740 -115.1310 270° West 157 181 2,300 -1,020 Descending FlightAware
11:13PM 36.0740 -115.1560 270° West 96 110 -3,120 Descending FlightAware
11:15PM 36.0750 -115.1480 81° East 29 33  Level FlightAware
11:15PM 36.0750 -115.1440 90° East 29 33  Level FlightAware
11:20PM 36.0667 -115.1500 270° West  Level FlightAware Approximate
11:21PM 36.0801 -115.1523 270° West  Level Estimated